sensor_id;sensor_type;location;lat;lon;timestamp;temperature;humidity
52769;DHT22;40471;44.534;18.644;2023-08-12T00:00:19;16.00;99.90
52769;DHT22;40471;44.534;18.644;2023-08-12T00:02:45;16.00;99.90
52769;DHT22;40471;44.534;18.644;2023-08-12T00:05:11;16.00;99.90
52769;DHT22;40471;44.534;18.644;2023-08-12T00:07:37;15.90;99.90
52769;DHT22;40471;44.534;18.644;2023-08-12T00:10:03;15.90;99.90
52769;DHT22;40471;44.534;18.644;2023-08-12T00:12:30;15.90;99.90
52769;DHT22;40471;44.534;18.644;2023-08-12T00:14:56;15.80;99.90
52769;DHT22;40471;44.534;18.644;2023-08-12T00:17:22;15.80;99.90
52769;DHT22;40471;44.534;18.644;2023-08-12T00:19:47;15.70;99.90
52769;DHT22;40471;44.534;18.644;2023-08-12T00:22:13;15.70;99.90
52769;DHT22;40471;44.534;18.644;2023-08-12T00:24:39;15.60;99.90
52769;DHT22;40471;44.534;18.644;2023-08-12T00:27:05;15.70;99.90
52769;DHT22;40471;44.534;18.644;2023-08-12T00:29:32;15.70;99.90
52769;DHT22;40471;44.534;18.644;2023-08-12T00:31:57;15.70;99.90
52769;DHT22;40471;44.534;18.644;2023-08-12T00:34:23;15.70;99.90
52769;DHT22;40471;44.534;18.644;2023-08-12T00:36:49;15.60;99.90
52769;DHT22;40471;44.534;18.644;2023-08-12T00:39:14;15.40;99.90
52769;DHT22;40471;44.534;18.644;2023-08-12T00:41:40;15.60;99.90
52769;DHT22;40471;44.534;18.644;2023-08-12T00:44:06;15.60;99.90
52769;DHT22;40471;44.534;18.644;2023-08-12T00:46:32;15.50;99.90
52769;DHT22;40471;44.534;18.644;2023-08-12T00:48:58;15.40;99.90
52769;DHT22;40471;44.534;18.644;2023-08-12T00:51:23;15.30;99.90
52769;DHT22;40471;44.534;18.644;2023-08-12T00:53:49;15.20;99.90
52769;DHT22;40471;44.534;18.644;2023-08-12T00:56:15;15.20;99.90
52769;DHT22;40471;44.534;18.644;2023-08-12T00:58:41;15.30;99.90
52769;DHT22;40471;44.534;18.644;2023-08-12T01:01:08;15.30;99.90
52769;DHT22;40471;44.534;18.644;2023-08-12T01:03:33;15.30;99.90
52769;DHT22;40471;44.534;18.644;2023-08-12T01:05:59;15.30;99.90
52769;DHT22;40471;44.534;18.644;2023-08-12T01:08:27;15.30;99.90
52769;DHT22;40471;44.534;18.644;2023-08-12T01:10:56;15.30;99.90
52769;DHT22;40471;44.534;18.644;2023-08-12T01:13:35;15.20;99.90
52769;DHT22;40471;44.534;18.644;2023-08-12T01:16:03;15.20;99.90
52769;DHT22;40471;44.534;18.644;2023-08-12T01:18:30;15.20;99.90
52769;DHT22;40471;44.534;18.644;2023-08-12T01:20:56;15.20;99.90
52769;DHT22;40471;44.534;18.644;2023-08-12T01:23:22;15.10;99.90
52769;DHT22;40471;44.534;18.644;2023-08-12T01:25:47;15.10;99.90
52769;DHT22;40471;44.534;18.644;2023-08-12T01:28:13;15.00;99.90
52769;DHT22;40471;44.534;18.644;2023-08-12T01:31:26;15.00;99.90
52769;DHT22;40471;44.534;18.644;2023-08-12T01:33:31;15.00;99.90
52769;DHT22;40471;44.534;18.644;2023-08-12T01:36:12;14.90;99.90
52769;DHT22;40471;44.534;18.644;2023-08-12T01:38:40;14.90;99.90
52769;DHT22;40471;44.534;18.644;2023-08-12T01:41:08;14.90;99.90
52769;DHT22;40471;44.534;18.644;2023-08-12T01:43:34;14.80;99.90
52769;DHT22;40471;44.534;18.644;2023-08-12T01:46:00;14.90;99.90
52769;DHT22;40471;44.534;18.644;2023-08-12T01:48:26;14.80;99.90
52769;DHT22;40471;44.534;18.644;2023-08-12T01:50:52;14.80;99.90
52769;DHT22;40471;44.534;18.644;2023-08-12T01:53:17;14.70;99.90
52769;DHT22;40471;44.534;18.644;2023-08-12T01:55:43;14.70;99.90
52769;DHT22;40471;44.534;18.644;2023-08-12T01:58:09;14.70;99.90
52769;DHT22;40471;44.534;18.644;2023-08-12T02:00:35;14.70;99.90
52769;DHT22;40471;44.534;18.644;2023-08-12T02:03:00;14.70;99.90
52769;DHT22;40471;44.534;18.644;2023-08-12T02:05:26;14.70;99.90
52769;DHT22;40471;44.534;18.644;2023-08-12T02:07:51;14.70;99.90
52769;DHT22;40471;44.534;18.644;2023-08-12T02:10:17;14.70;99.90
52769;DHT22;40471;44.534;18.644;2023-08-12T02:12:42;14.60;99.90
52769;DHT22;40471;44.534;18.644;2023-08-12T02:15:09;14.70;99.90
52769;DHT22;40471;44.534;18.644;2023-08-12T02:17:34;14.60;99.90
52769;DHT22;40471;44.534;18.644;2023-08-12T02:20:00;14.50;99.90
52769;DHT22;40471;44.534;18.644;2023-08-12T02:22:26;14.50;99.90
52769;DHT22;40471;44.534;18.644;2023-08-12T02:24:51;14.50;99.90
52769;DHT22;40471;44.534;18.644;2023-08-12T02:27:17;14.60;99.90
52769;DHT22;40471;44.534;18.644;2023-08-12T02:29:42;14.50;99.90
52769;DHT22;40471;44.534;18.644;2023-08-12T02:32:08;14.60;99.90
52769;DHT22;40471;44.534;18.644;2023-08-12T02:34:33;14.50;99.90
52769;DHT22;40471;44.534;18.644;2023-08-12T02:36:59;14.50;99.90
52769;DHT22;40471;44.534;18.644;2023-08-12T02:39:25;14.50;99.90
52769;DHT22;40471;44.534;18.644;2023-08-12T02:41:50;14.50;99.90
52769;DHT22;40471;44.534;18.644;2023-08-12T02:44:16;14.50;99.90
52769;DHT22;40471;44.534;18.644;2023-08-12T02:46:42;14.50;99.90
52769;DHT22;40471;44.534;18.644;2023-08-12T02:49:07;14.40;99.90
52769;DHT22;40471;44.534;18.644;2023-08-12T02:51:33;14.40;99.90
52769;DHT22;40471;44.534;18.644;2023-08-12T02:53:59;14.30;99.90
52769;DHT22;40471;44.534;18.644;2023-08-12T02:56:24;14.30;99.90
52769;DHT22;40471;44.534;18.644;2023-08-12T02:58:50;14.30;99.90
52769;DHT22;40471;44.534;18.644;2023-08-12T03:01:15;14.30;99.90
52769;DHT22;40471;44.534;18.644;2023-08-12T03:03:41;14.20;99.90
52769;DHT22;40471;44.534;18.644;2023-08-12T03:06:07;14.20;99.90
52769;DHT22;40471;44.534;18.644;2023-08-12T03:08:32;14.20;99.90
52769;DHT22;40471;44.534;18.644;2023-08-12T03:10:58;14.20;99.90
52769;DHT22;40471;44.534;18.644;2023-08-12T03:13:25;14.10;99.90
52769;DHT22;40471;44.534;18.644;2023-08-12T03:15:50;14.10;99.90
52769;DHT22;40471;44.534;18.644;2023-08-12T03:18:16;14.10;99.90
52769;DHT22;40471;44.534;18.644;2023-08-12T03:20:41;14.10;99.90
52769;DHT22;40471;44.534;18.644;2023-08-12T03:23:07;14.10;99.90
52769;DHT22;40471;44.534;18.644;2023-08-12T03:25:33;14.10;99.90
52769;DHT22;40471;44.534;18.644;2023-08-12T03:27:58;14.10;99.90
52769;DHT22;40471;44.534;18.644;2023-08-12T03:30:24;14.10;99.90
52769;DHT22;40471;44.534;18.644;2023-08-12T03:32:51;14.10;99.90
52769;DHT22;40471;44.534;18.644;2023-08-12T03:35:16;14.10;99.90
52769;DHT22;40471;44.534;18.644;2023-08-12T03:37:42;14.10;99.90
52769;DHT22;40471;44.534;18.644;2023-08-12T03:40:08;14.10;99.90
52769;DHT22;40471;44.534;18.644;2023-08-12T03:42:34;14.00;99.90
52769;DHT22;40471;44.534;18.644;2023-08-12T03:44:59;13.90;99.90
52769;DHT22;40471;44.534;18.644;2023-08-12T03:47:25;13.90;99.90
52769;DHT22;40471;44.534;18.644;2023-08-12T03:49:50;13.90;99.90
52769;DHT22;40471;44.534;18.644;2023-08-12T03:52:16;13.90;99.90
52769;DHT22;40471;44.534;18.644;2023-08-12T03:54:42;13.90;99.90
52769;DHT22;40471;44.534;18.644;2023-08-12T03:57:07;13.90;99.90
52769;DHT22;40471;44.534;18.644;2023-08-12T03:59:33;14.00;99.90
52769;DHT22;40471;44.534;18.644;2023-08-12T04:01:58;13.90;99.90
52769;DHT22;40471;44.534;18.644;2023-08-12T04:04:24;14.00;99.90
52769;DHT22;40471;44.534;18.644;2023-08-12T04:06:50;13.90;99.90
52769;DHT22;40471;44.534;18.644;2023-08-12T04:09:18;14.00;99.90
52769;DHT22;40471;44.534;18.644;2023-08-12T04:11:45;14.00;99.90
52769;DHT22;40471;44.534;18.644;2023-08-12T04:14:10;14.10;99.90
52769;DHT22;40471;44.534;18.644;2023-08-12T04:16:36;14.20;99.90
52769;DHT22;40471;44.534;18.644;2023-08-12T04:19:01;14.10;99.90
52769;DHT22;40471;44.534;18.644;2023-08-12T04:21:28;14.20;99.90
52769;DHT22;40471;44.534;18.644;2023-08-12T04:23:53;14.30;99.90
52769;DHT22;40471;44.534;18.644;2023-08-12T04:26:19;14.30;99.90
52769;DHT22;40471;44.534;18.644;2023-08-12T04:28:45;14.40;99.90
52769;DHT22;40471;44.534;18.644;2023-08-12T04:31:10;14.40;99.90
52769;DHT22;40471;44.534;18.644;2023-08-12T04:33:36;14.50;99.90
52769;DHT22;40471;44.534;18.644;2023-08-12T04:36:01;14.50;99.90
52769;DHT22;40471;44.534;18.644;2023-08-12T04:38:27;14.50;99.90
52769;DHT22;40471;44.534;18.644;2023-08-12T04:40:53;14.60;99.90
52769;DHT22;40471;44.534;18.644;2023-08-12T04:43:19;14.70;99.90
52769;DHT22;40471;44.534;18.644;2023-08-12T04:45:45;14.70;99.90
52769;DHT22;40471;44.534;18.644;2023-08-12T04:48:12;15.90;99.90
52769;DHT22;40471;44.534;18.644;2023-08-12T04:50:38;16.80;99.90
52769;DHT22;40471;44.534;18.644;2023-08-12T04:53:04;18.30;99.90
52769;DHT22;40471;44.534;18.644;2023-08-12T04:55:30;20.70;99.90
52769;DHT22;40471;44.534;18.644;2023-08-12T04:57:56;23.00;99.90
52769;DHT22;40471;44.534;18.644;2023-08-12T05:00:22;24.50;99.90
52769;DHT22;40471;44.534;18.644;2023-08-12T05:02:47;25.60;96.60
52769;DHT22;40471;44.534;18.644;2023-08-12T05:05:13;26.50;92.70
52769;DHT22;40471;44.534;18.644;2023-08-12T05:07:39;27.40;89.70
52769;DHT22;40471;44.534;18.644;2023-08-12T05:10:05;28.30;84.50
52769;DHT22;40471;44.534;18.644;2023-08-12T05:12:30;29.30;80.80
52769;DHT22;40471;44.534;18.644;2023-08-12T05:14:56;29.90;75.40
52769;DHT22;40471;44.534;18.644;2023-08-12T05:17:22;30.10;73.20
52769;DHT22;40471;44.534;18.644;2023-08-12T05:19:47;30.70;70.80
52769;DHT22;40471;44.534;18.644;2023-08-12T05:22:13;31.40;67.80
52769;DHT22;40471;44.534;18.644;2023-08-12T05:24:38;31.80;66.60
52769;DHT22;40471;44.534;18.644;2023-08-12T05:27:04;32.10;65.00
52769;DHT22;40471;44.534;18.644;2023-08-12T05:29:30;32.40;64.10
52769;DHT22;40471;44.534;18.644;2023-08-12T05:31:56;32.90;62.60
52769;DHT22;40471;44.534;18.644;2023-08-12T05:34:21;33.30;61.40
52769;DHT22;40471;44.534;18.644;2023-08-12T05:36:47;33.80;60.00
52769;DHT22;40471;44.534;18.644;2023-08-12T05:39:13;34.30;59.30
52769;DHT22;40471;44.534;18.644;2023-08-12T05:41:38;34.60;58.20
52769;DHT22;40471;44.534;18.644;2023-08-12T05:44:04;34.70;57.50
52769;DHT22;40471;44.534;18.644;2023-08-12T05:46:30;35.00;56.90
52769;DHT22;40471;44.534;18.644;2023-08-12T05:48:55;35.10;56.70
52769;DHT22;40471;44.534;18.644;2023-08-12T05:51:21;35.30;55.40
52769;DHT22;40471;44.534;18.644;2023-08-12T05:53:47;35.40;55.00
52769;DHT22;40471;44.534;18.644;2023-08-12T05:56:13;35.50;55.20
52769;DHT22;40471;44.534;18.644;2023-08-12T05:58:39;35.70;54.60
52769;DHT22;40471;44.534;18.644;2023-08-12T06:01:04;36.40;53.90
52769;DHT22;40471;44.534;18.644;2023-08-12T06:03:30;36.60;53.60
52769;DHT22;40471;44.534;18.644;2023-08-12T06:05:55;36.60;53.40
52769;DHT22;40471;44.534;18.644;2023-08-12T06:08:21;37.10;52.40
52769;DHT22;40471;44.534;18.644;2023-08-12T06:10:46;37.50;52.30
52769;DHT22;40471;44.534;18.644;2023-08-12T06:13:12;37.70;51.10
52769;DHT22;40471;44.534;18.644;2023-08-12T06:15:38;37.70;51.60
52769;DHT22;40471;44.534;18.644;2023-08-12T06:18:03;38.30;50.60
52769;DHT22;40471;44.534;18.644;2023-08-12T06:20:29;38.80;50.30
52769;DHT22;40471;44.534;18.644;2023-08-12T06:22:55;39.60;50.50
52769;DHT22;40471;44.534;18.644;2023-08-12T06:25:21;39.50;49.10
52769;DHT22;40471;44.534;18.644;2023-08-12T06:27:46;39.50;48.50
52769;DHT22;40471;44.534;18.644;2023-08-12T06:30:12;39.20;49.30
52769;DHT22;40471;44.534;18.644;2023-08-12T06:32:38;39.20;49.00
52769;DHT22;40471;44.534;18.644;2023-08-12T06:35:04;39.60;49.20
52769;DHT22;40471;44.534;18.644;2023-08-12T06:37:29;40.10;47.90
52769;DHT22;40471;44.534;18.644;2023-08-12T06:39:55;40.20;47.30
52769;DHT22;40471;44.534;18.644;2023-08-12T06:42:21;40.20;47.70
52769;DHT22;40471;44.534;18.644;2023-08-12T06:44:49;40.50;47.40
52769;DHT22;40471;44.534;18.644;2023-08-12T06:47:15;40.40;47.20
52769;DHT22;40471;44.534;18.644;2023-08-12T06:49:40;40.60;47.60
52769;DHT22;40471;44.534;18.644;2023-08-12T06:52:06;40.90;47.60
52769;DHT22;40471;44.534;18.644;2023-08-12T06:54:32;40.80;46.60
52769;DHT22;40471;44.534;18.644;2023-08-12T06:56:57;41.00;46.20
52769;DHT22;40471;44.534;18.644;2023-08-12T06:59:23;41.30;46.70
52769;DHT22;40471;44.534;18.644;2023-08-12T07:01:48;41.50;47.10
52769;DHT22;40471;44.534;18.644;2023-08-12T07:04:14;41.30;46.80
52769;DHT22;40471;44.534;18.644;2023-08-12T07:06:40;41.00;47.10
52769;DHT22;40471;44.534;18.644;2023-08-12T07:09:05;41.40;46.40
52769;DHT22;40471;44.534;18.644;2023-08-12T07:11:31;41.30;46.50
52769;DHT22;40471;44.534;18.644;2023-08-12T07:13:56;40.00;48.00
52769;DHT22;40471;44.534;18.644;2023-08-12T07:16:22;39.80;48.00
52769;DHT22;40471;44.534;18.644;2023-08-12T07:18:47;39.80;47.60
52769;DHT22;40471;44.534;18.644;2023-08-12T07:21:13;39.20;47.90
52769;DHT22;40471;44.534;18.644;2023-08-12T07:23:39;39.00;49.00
52769;DHT22;40471;44.534;18.644;2023-08-12T07:26:04;39.30;49.10
52769;DHT22;40471;44.534;18.644;2023-08-12T07:28:30;40.10;47.90
52769;DHT22;40471;44.534;18.644;2023-08-12T07:30:55;40.10;47.70
52769;DHT22;40471;44.534;18.644;2023-08-12T07:33:21;40.10;47.70
52769;DHT22;40471;44.534;18.644;2023-08-12T07:35:46;40.20;48.50
52769;DHT22;40471;44.534;18.644;2023-08-12T07:38:12;40.60;47.70
52769;DHT22;40471;44.534;18.644;2023-08-12T07:40:38;40.60;47.80
52769;DHT22;40471;44.534;18.644;2023-08-12T07:43:03;41.20;47.60
52769;DHT22;40471;44.534;18.644;2023-08-12T07:45:30;40.80;46.90
52769;DHT22;40471;44.534;18.644;2023-08-12T07:47:56;40.00;47.70
52769;DHT22;40471;44.534;18.644;2023-08-12T07:50:21;40.00;48.50
52769;DHT22;40471;44.534;18.644;2023-08-12T07:52:47;40.10;48.00
52769;DHT22;40471;44.534;18.644;2023-08-12T07:55:13;39.40;48.10
52769;DHT22;40471;44.534;18.644;2023-08-12T07:57:39;39.00;48.40
52769;DHT22;40471;44.534;18.644;2023-08-12T08:00:04;39.20;48.80
52769;DHT22;40471;44.534;18.644;2023-08-12T08:02:30;39.60;47.70
52769;DHT22;40471;44.534;18.644;2023-08-12T08:04:56;39.20;48.30
52769;DHT22;40471;44.534;18.644;2023-08-12T08:07:21;39.10;48.80
52769;DHT22;40471;44.534;18.644;2023-08-12T08:09:47;38.80;48.60
52769;DHT22;40471;44.534;18.644;2023-08-12T08:12:13;38.90;48.60
52769;DHT22;40471;44.534;18.644;2023-08-12T08:14:38;39.00;48.60
52769;DHT22;40471;44.534;18.644;2023-08-12T08:17:04;38.90;49.10
52769;DHT22;40471;44.534;18.644;2023-08-12T08:19:30;38.80;49.50
52769;DHT22;40471;44.534;18.644;2023-08-12T08:21:56;38.70;49.50
52769;DHT22;40471;44.534;18.644;2023-08-12T08:24:22;38.70;48.70
52769;DHT22;40471;44.534;18.644;2023-08-12T08:26:48;38.80;48.70
52769;DHT22;40471;44.534;18.644;2023-08-12T08:29:13;38.60;48.90
52769;DHT22;40471;44.534;18.644;2023-08-12T08:31:39;38.60;48.70
52769;DHT22;40471;44.534;18.644;2023-08-12T08:34:05;38.10;49.80
52769;DHT22;40471;44.534;18.644;2023-08-12T08:36:31;38.40;49.60
52769;DHT22;40471;44.534;18.644;2023-08-12T08:38:56;38.70;48.60
52769;DHT22;40471;44.534;18.644;2023-08-12T08:41:22;38.60;47.80
52769;DHT22;40471;44.534;18.644;2023-08-12T08:43:49;38.70;47.50
52769;DHT22;40471;44.534;18.644;2023-08-12T08:46:15;38.60;46.80
52769;DHT22;40471;44.534;18.644;2023-08-12T08:48:42;38.70;46.80
52769;DHT22;40471;44.534;18.644;2023-08-12T08:51:08;38.60;48.20
52769;DHT22;40471;44.534;18.644;2023-08-12T08:53:37;38.60;47.70
52769;DHT22;40471;44.534;18.644;2023-08-12T08:56:06;38.50;47.80
52769;DHT22;40471;44.534;18.644;2023-08-12T08:58:32;38.50;48.20
52769;DHT22;40471;44.534;18.644;2023-08-12T09:00:58;38.20;48.70
52769;DHT22;40471;44.534;18.644;2023-08-12T09:03:24;38.30;46.90
52769;DHT22;40471;44.534;18.644;2023-08-12T09:05:50;38.40;47.90
52769;DHT22;40471;44.534;18.644;2023-08-12T09:08:17;38.60;47.10
52769;DHT22;40471;44.534;18.644;2023-08-12T09:10:43;38.60;47.50
52769;DHT22;40471;44.534;18.644;2023-08-12T09:13:09;38.20;48.00
52769;DHT22;40471;44.534;18.644;2023-08-12T09:15:35;38.00;48.00
52769;DHT22;40471;44.534;18.644;2023-08-12T09:18:00;38.00;48.40
52769;DHT22;40471;44.534;18.644;2023-08-12T09:20:26;38.00;48.30
52769;DHT22;40471;44.534;18.644;2023-08-12T09:22:55;38.20;49.00
52769;DHT22;40471;44.534;18.644;2023-08-12T09:25:22;38.40;49.10
52769;DHT22;40471;44.534;18.644;2023-08-12T09:27:48;38.40;48.60
52769;DHT22;40471;44.534;18.644;2023-08-12T09:30:14;38.30;48.80
52769;DHT22;40471;44.534;18.644;2023-08-12T09:32:40;38.30;48.70
52769;DHT22;40471;44.534;18.644;2023-08-12T09:35:05;38.00;50.30
52769;DHT22;40471;44.534;18.644;2023-08-12T09:37:31;37.90;49.50
52769;DHT22;40471;44.534;18.644;2023-08-12T09:39:57;38.00;49.00
52769;DHT22;40471;44.534;18.644;2023-08-12T09:42:23;37.90;50.30
52769;DHT22;40471;44.534;18.644;2023-08-12T09:44:49;37.90;49.10
52769;DHT22;40471;44.534;18.644;2023-08-12T09:47:15;38.10;49.50
52769;DHT22;40471;44.534;18.644;2023-08-12T09:49:40;38.40;49.70
52769;DHT22;40471;44.534;18.644;2023-08-12T09:52:06;38.80;50.00
52769;DHT22;40471;44.534;18.644;2023-08-12T09:54:32;39.00;48.50
52769;DHT22;40471;44.534;18.644;2023-08-12T09:56:58;38.60;48.50
52769;DHT22;40471;44.534;18.644;2023-08-12T09:59:24;38.70;48.90
52769;DHT22;40471;44.534;18.644;2023-08-12T10:01:52;38.90;48.40
52769;DHT22;40471;44.534;18.644;2023-08-12T10:04:18;39.20;49.00
52769;DHT22;40471;44.534;18.644;2023-08-12T10:06:47;39.10;47.00
52769;DHT22;40471;44.534;18.644;2023-08-12T10:09:12;38.90;48.60
52769;DHT22;40471;44.534;18.644;2023-08-12T10:11:40;39.10;48.70
52769;DHT22;40471;44.534;18.644;2023-08-12T10:14:06;39.50;47.30
52769;DHT22;40471;44.534;18.644;2023-08-12T10:16:31;39.30;47.00
52769;DHT22;40471;44.534;18.644;2023-08-12T10:18:58;39.10;47.90
52769;DHT22;40471;44.534;18.644;2023-08-12T10:21:25;38.90;49.60
52769;DHT22;40471;44.534;18.644;2023-08-12T10:23:50;38.70;48.30
52769;DHT22;40471;44.534;18.644;2023-08-12T10:26:17;38.40;47.90
52769;DHT22;40471;44.534;18.644;2023-08-12T10:28:43;38.40;47.80
52769;DHT22;40471;44.534;18.644;2023-08-12T10:31:10;37.60;47.80
52769;DHT22;40471;44.534;18.644;2023-08-12T10:33:37;37.40;48.70
52769;DHT22;40471;44.534;18.644;2023-08-12T10:36:03;36.50;49.10
52769;DHT22;40471;44.534;18.644;2023-08-12T10:38:28;36.20;50.10
52769;DHT22;40471;44.534;18.644;2023-08-12T10:41:15;36.20;50.20
52769;DHT22;40471;44.534;18.644;2023-08-12T10:43:52;36.20;51.30
52769;DHT22;40471;44.534;18.644;2023-08-12T10:46:22;35.50;49.90
52769;DHT22;40471;44.534;18.644;2023-08-12T10:57:38;33.90;52.50
52769;DHT22;40471;44.534;18.644;2023-08-12T11:00:05;33.90;53.60
52769;DHT22;40471;44.534;18.644;2023-08-12T11:02:32;34.30;53.00
52769;DHT22;40471;44.534;18.644;2023-08-12T11:05:07;34.90;53.10
52769;DHT22;40471;44.534;18.644;2023-08-12T11:07:43;35.60;52.40
52769;DHT22;40471;44.534;18.644;2023-08-12T11:10:10;36.20;49.50
52769;DHT22;40471;44.534;18.644;2023-08-12T11:12:37;35.80;49.40
52769;DHT22;40471;44.534;18.644;2023-08-12T11:15:03;35.10;49.70
52769;DHT22;40471;44.534;18.644;2023-08-12T11:20:21;34.50;50.40
52769;DHT22;40471;44.534;18.644;2023-08-12T11:22:46;34.50;50.70
52769;DHT22;40471;44.534;18.644;2023-08-12T11:25:15;35.10;51.30
52769;DHT22;40471;44.534;18.644;2023-08-12T11:27:41;35.50;50.40
52769;DHT22;40471;44.534;18.644;2023-08-12T11:30:14;35.80;52.20
52769;DHT22;40471;44.534;18.644;2023-08-12T11:32:44;36.30;51.20
52769;DHT22;40471;44.534;18.644;2023-08-12T11:35:10;36.60;49.50
52769;DHT22;40471;44.534;18.644;2023-08-12T11:37:36;36.60;49.80
52769;DHT22;40471;44.534;18.644;2023-08-12T11:40:03;37.00;50.10
52769;DHT22;40471;44.534;18.644;2023-08-12T11:42:28;37.70;50.80
52769;DHT22;40471;44.534;18.644;2023-08-12T11:44:54;37.90;48.50
52769;DHT22;40471;44.534;18.644;2023-08-12T11:47:20;38.00;48.90
52769;DHT22;40471;44.534;18.644;2023-08-12T11:49:45;38.00;48.20
52769;DHT22;40471;44.534;18.644;2023-08-12T11:52:11;38.00;48.40
52769;DHT22;40471;44.534;18.644;2023-08-12T11:54:37;37.50;47.80
52769;DHT22;40471;44.534;18.644;2023-08-12T11:57:03;37.60;48.20
52769;DHT22;40471;44.534;18.644;2023-08-12T11:59:30;37.60;48.00
52769;DHT22;40471;44.534;18.644;2023-08-12T12:01:55;37.60;48.50
52769;DHT22;40471;44.534;18.644;2023-08-12T12:04:21;37.30;48.20
52769;DHT22;40471;44.534;18.644;2023-08-12T12:06:47;37.20;49.10
52769;DHT22;40471;44.534;18.644;2023-08-12T12:09:15;37.30;48.00
52769;DHT22;40471;44.534;18.644;2023-08-12T12:11:43;37.00;48.00
52769;DHT22;40471;44.534;18.644;2023-08-12T12:14:09;37.00;49.10
52769;DHT22;40471;44.534;18.644;2023-08-12T12:16:36;36.90;48.10
52769;DHT22;40471;44.534;18.644;2023-08-12T12:19:02;36.90;48.70
52769;DHT22;40471;44.534;18.644;2023-08-12T12:21:29;37.00;48.10
52769;DHT22;40471;44.534;18.644;2023-08-12T12:23:54;37.10;48.10
52769;DHT22;40471;44.534;18.644;2023-08-12T12:26:20;37.40;48.20
52769;DHT22;40471;44.534;18.644;2023-08-12T12:28:46;37.30;49.00
52769;DHT22;40471;44.534;18.644;2023-08-12T12:31:11;37.10;48.40
52769;DHT22;40471;44.534;18.644;2023-08-12T12:33:37;37.00;48.70
52769;DHT22;40471;44.534;18.644;2023-08-12T12:36:02;37.30;48.40
52769;DHT22;40471;44.534;18.644;2023-08-12T12:38:28;37.20;48.10
52769;DHT22;40471;44.534;18.644;2023-08-12T12:40:54;37.00;48.40
52769;DHT22;40471;44.534;18.644;2023-08-12T12:43:19;36.60;48.00
52769;DHT22;40471;44.534;18.644;2023-08-12T12:45:45;36.40;49.30
52769;DHT22;40471;44.534;18.644;2023-08-12T12:48:10;36.10;48.50
52769;DHT22;40471;44.534;18.644;2023-08-12T12:50:36;36.40;48.40
52769;DHT22;40471;44.534;18.644;2023-08-12T12:53:03;36.80;48.70
52769;DHT22;40471;44.534;18.644;2023-08-12T12:55:28;37.00;47.80
52769;DHT22;40471;44.534;18.644;2023-08-12T12:57:54;36.50;47.30
52769;DHT22;40471;44.534;18.644;2023-08-12T13:00:19;35.60;48.50
52769;DHT22;40471;44.534;18.644;2023-08-12T13:02:45;34.90;48.50
52769;DHT22;40471;44.534;18.644;2023-08-12T13:05:11;34.00;49.40
52769;DHT22;40471;44.534;18.644;2023-08-12T13:07:36;33.50;49.50
52769;DHT22;40471;44.534;18.644;2023-08-12T13:10:02;32.90;49.90
52769;DHT22;40471;44.534;18.644;2023-08-12T13:12:28;32.60;50.50
52769;DHT22;40471;44.534;18.644;2023-08-12T13:14:53;32.90;51.30
52769;DHT22;40471;44.534;18.644;2023-08-12T13:17:19;33.50;50.40
52769;DHT22;40471;44.534;18.644;2023-08-12T13:19:45;33.90;49.80
52769;DHT22;40471;44.534;18.644;2023-08-12T13:22:10;34.30;49.80
52769;DHT22;40471;44.534;18.644;2023-08-12T13:24:36;34.70;49.40
52769;DHT22;40471;44.534;18.644;2023-08-12T13:27:01;34.90;50.90
52769;DHT22;40471;44.534;18.644;2023-08-12T13:29:27;35.30;50.20
52769;DHT22;40471;44.534;18.644;2023-08-12T13:31:53;35.60;49.50
52769;DHT22;40471;44.534;18.644;2023-08-12T13:34:19;35.80;48.10
52769;DHT22;40471;44.534;18.644;2023-08-12T13:36:45;35.80;47.90
52769;DHT22;40471;44.534;18.644;2023-08-12T13:39:10;35.80;47.40
52769;DHT22;40471;44.534;18.644;2023-08-12T13:41:36;35.50;48.00
52769;DHT22;40471;44.534;18.644;2023-08-12T13:44:01;34.70;48.50
52769;DHT22;40471;44.534;18.644;2023-08-12T13:46:27;34.10;49.00
52769;DHT22;40471;44.534;18.644;2023-08-12T13:48:53;33.50;49.80
52769;DHT22;40471;44.534;18.644;2023-08-12T13:51:18;33.00;49.80
52769;DHT22;40471;44.534;18.644;2023-08-12T13:53:44;32.90;50.30
52769;DHT22;40471;44.534;18.644;2023-08-12T13:56:09;32.60;50.40
52769;DHT22;40471;44.534;18.644;2023-08-12T13:58:35;32.40;50.60
52769;DHT22;40471;44.534;18.644;2023-08-12T14:01:01;32.30;50.90
52769;DHT22;40471;44.534;18.644;2023-08-12T14:03:27;32.30;50.60
52769;DHT22;40471;44.534;18.644;2023-08-12T14:05:53;32.10;50.60
52769;DHT22;40471;44.534;18.644;2023-08-12T14:08:19;32.10;51.30
52769;DHT22;40471;44.534;18.644;2023-08-12T14:10:48;31.90;50.90
52769;DHT22;40471;44.534;18.644;2023-08-12T14:13:15;31.70;51.40
52769;DHT22;40471;44.534;18.644;2023-08-12T14:15:41;31.50;51.10
52769;DHT22;40471;44.534;18.644;2023-08-12T14:18:06;31.30;52.10
52769;DHT22;40471;44.534;18.644;2023-08-12T14:20:32;31.40;52.10
52769;DHT22;40471;44.534;18.644;2023-08-12T14:22:57;31.60;51.50
52769;DHT22;40471;44.534;18.644;2023-08-12T14:25:24;31.60;52.30
52769;DHT22;40471;44.534;18.644;2023-08-12T14:27:50;31.70;51.70
52769;DHT22;40471;44.534;18.644;2023-08-12T14:30:17;31.50;51.50
52769;DHT22;40471;44.534;18.644;2023-08-12T14:32:43;31.40;52.20
52769;DHT22;40471;44.534;18.644;2023-08-12T14:35:09;31.40;52.50
52769;DHT22;40471;44.534;18.644;2023-08-12T14:37:34;31.30;52.70
52769;DHT22;40471;44.534;18.644;2023-08-12T14:40:00;31.20;53.10
52769;DHT22;40471;44.534;18.644;2023-08-12T14:42:26;31.10;53.40
52769;DHT22;40471;44.534;18.644;2023-08-12T14:44:52;31.00;53.40
52769;DHT22;40471;44.534;18.644;2023-08-12T14:47:17;31.00;53.50
52769;DHT22;40471;44.534;18.644;2023-08-12T14:49:44;31.00;53.60
52769;DHT22;40471;44.534;18.644;2023-08-12T14:52:16;30.90;53.00
52769;DHT22;40471;44.534;18.644;2023-08-12T14:54:42;30.90;53.00
52769;DHT22;40471;44.534;18.644;2023-08-12T14:57:07;31.00;52.60
52769;DHT22;40471;44.534;18.644;2023-08-12T14:59:33;31.10;51.40
52769;DHT22;40471;44.534;18.644;2023-08-12T15:01:59;31.00;52.20
52769;DHT22;40471;44.534;18.644;2023-08-12T15:04:24;31.00;52.40
52769;DHT22;40471;44.534;18.644;2023-08-12T15:06:50;31.00;52.40
52769;DHT22;40471;44.534;18.644;2023-08-12T15:09:16;31.10;52.50
52769;DHT22;40471;44.534;18.644;2023-08-12T15:11:42;31.20;51.70
52769;DHT22;40471;44.534;18.644;2023-08-12T15:14:08;31.10;51.70
52769;DHT22;40471;44.534;18.644;2023-08-12T15:16:33;30.80;52.10
52769;DHT22;40471;44.534;18.644;2023-08-12T15:18:59;30.40;53.00